sensor_id;sensor_type;location;lat;lon;timestamp;P1;durP1;ratioP1;P2;durP2;ratioP2
29218;SDS011;16421;50.202;7.852;2023-11-21T18:38:51;7.43;;;4.93;;
29218;SDS011;16421;50.202;7.852;2023-11-21T18:43:54;7.20;;;4.38;;
29218;SDS011;16421;50.202;7.852;2023-11-21T18:48:58;8.43;;;5.00;;
29218;SDS011;16421;50.202;7.852;2023-11-21T18:54:02;12.07;;;6.93;;
29218;SDS011;16421;50.202;7.852;2023-11-21T18:59:06;10.17;;;6.90;;
29218;SDS011;16421;50.202;7.852;2023-11-21T19:04:12;9.00;;;5.97;;
29218;SDS011;16421;50.202;7.852;2023-11-21T19:09:23;8.20;;;5.72;;
29218;SDS011;16421;50.202;7.852;2023-11-21T19:14:26;13.18;;;9.77;;
29218;SDS011;16421;50.202;7.852;2023-11-21T19:19:30;10.85;;;7.88;;
29218;SDS011;16421;50.202;7.852;2023-11-21T19:24:34;6.22;;;5.35;;
29218;SDS011;16421;50.202;7.852;2023-11-21T19:29:37;5.93;;;3.80;;
29218;SDS011;16421;50.202;7.852;2023-11-21T19:34:41;5.70;;;3.25;;
29218;SDS011;16421;50.202;7.852;2023-11-21T19:46:58;1.40;;;0.68;;
29218;SDS011;16421;50.202;7.852;2023-11-21T19:52:02;1.00;;;0.73;;
29218;SDS011;16421;50.202;7.852;2023-11-21T19:57:08;1.33;;;1.23;;
29218;SDS011;16421;50.202;7.852;2023-11-21T20:02:14;2.28;;;1.73;;
29218;SDS011;16421;50.202;7.852;2023-11-21T20:07:18;3.03;;;2.10;;
29218;SDS011;16421;50.202;7.852;2023-11-21T20:12:22;3.83;;;2.97;;
29218;SDS011;16421;50.202;7.852;2023-11-21T20:17:28;3.33;;;2.70;;
29218;SDS011;16421;50.202;7.852;2023-11-21T20:22:31;3.53;;;2.83;;
29218;SDS011;16421;50.202;7.852;2023-11-21T20:27:37;5.55;;;3.30;;
29218;SDS011;16421;50.202;7.852;2023-11-21T20:32:42;4.00;;;3.10;;
29218;SDS011;16421;50.202;7.852;2023-11-21T20:37:46;2.95;;;2.60;;
29218;SDS011;16421;50.202;7.852;2023-11-21T20:42:49;3.58;;;2.90;;
29218;SDS011;16421;50.202;7.852;2023-11-21T20:47:54;3.60;;;2.45;;
29218;SDS011;16421;50.202;7.852;2023-11-21T20:52:58;5.25;;;3.08;;
29218;SDS011;16421;50.202;7.852;2023-11-21T20:58:02;4.32;;;2.88;;
29218;SDS011;16421;50.202;7.852;2023-11-21T21:03:07;3.05;;;2.53;;
29218;SDS011;16421;50.202;7.852;2023-11-21T21:08:12;3.08;;;1.83;;
29218;SDS011;16421;50.202;7.852;2023-11-21T21:13:16;3.72;;;2.47;;
29218;SDS011;16421;50.202;7.852;2023-11-21T21:18:21;3.42;;;2.30;;
29218;SDS011;16421;50.202;7.852;2023-11-21T21:23:27;3.45;;;2.38;;
29218;SDS011;16421;50.202;7.852;2023-11-21T21:28:31;2.97;;;2.25;;
29218;SDS011;16421;50.202;7.852;2023-11-21T21:33:36;4.93;;;3.53;;
29218;SDS011;16421;50.202;7.852;2023-11-21T21:38:39;3.70;;;2.30;;
29218;SDS011;16421;50.202;7.852;2023-11-21T21:43:44;2.90;;;2.17;;
29218;SDS011;16421;50.202;7.852;2023-11-21T21:48:49;3.65;;;2.40;;
29218;SDS011;16421;50.202;7.852;2023-11-21T21:53:53;3.10;;;2.58;;
29218;SDS011;16421;50.202;7.852;2023-11-21T21:58:57;2.50;;;2.15;;
29218;SDS011;16421;50.202;7.852;2023-11-21T22:04:02;2.25;;;1.95;;
29218;SDS011;16421;50.202;7.852;2023-11-21T22:09:07;2.90;;;2.05;;
29218;SDS011;16421;50.202;7.852;2023-11-21T22:14:12;1.73;;;1.30;;
29218;SDS011;16421;50.202;7.852;2023-11-21T22:19:17;1.90;;;1.60;;
29218;SDS011;16421;50.202;7.852;2023-11-21T22:24:20;1.73;;;1.38;;
29218;SDS011;16421;50.202;7.852;2023-11-21T22:29:23;2.15;;;1.70;;
29218;SDS011;16421;50.202;7.852;2023-11-21T22:34:28;1.73;;;1.50;;
29218;SDS011;16421;50.202;7.852;2023-11-21T22:39:32;1.30;;;1.20;;
29218;SDS011;16421;50.202;7.852;2023-11-21T22:44:35;1.20;;;1.10;;
29218;SDS011;16421;50.202;7.852;2023-11-21T22:49:40;1.40;;;1.30;;
29218;SDS011;16421;50.202;7.852;2023-11-21T22:54:43;1.55;;;1.40;;
29218;SDS011;16421;50.202;7.852;2023-11-21T22:59:46;1.20;;;1.10;;
29218;SDS011;16421;50.202;7.852;2023-11-21T23:04:53;1.30;;;1.20;;
29218;SDS011;16421;50.202;7.852;2023-11-21T23:09:56;1.85;;;1.10;;
29218;SDS011;16421;50.202;7.852;2023-11-21T23:14:59;1.35;;;1.00;;
29218;SDS011;16421;50.202;7.852;2023-11-21T23:20:06;1.60;;;1.45;;
29218;SDS011;16421;50.202;7.852;2023-11-21T23:25:11;1.60;;;1.20;;
29218;SDS011;16421;50.202;7.852;2023-11-21T23:30:17;1.40;;;1.23;;
29218;SDS011;16421;50.202;7.852;2023-11-21T23:35:22;1.90;;;1.33;;
29218;SDS011;16421;50.202;7.852;2023-11-21T23:40:25;2.38;;;1.58;;
29218;SDS011;16421;50.202;7.852;2023-11-21T23:45:28;1.65;;;1.27;;
29218;SDS011;16421;50.202;7.852;2023-11-21T23:50:33;1.52;;;1.25;;
29218;SDS011;16421;50.202;7.852;2023-11-21T23:55:36;1.48;;;1.23;;
